Time;durP1;ratioP1;P1;durP2;ratioP2;P2;SDS_P1;SDS_P2;PMS_P1;PMS_P2;Temp;Humidity;BMP_temperature;BMP_pressure;BME280_temperature;BME280_humidity;BME280_pressure;Samples;Min_cycle;Max_cycle;Signal;HPM_P1;HPM_P2
2022/12/09 00:02:12;;;;;;;35.27;19.50;;;;;;;6.42;97.23;94692.16;4995955;28;20730;-76
2022/12/09 00:04:38;;;;;;;33.57;17.23;;;;;;;6.46;97.26;94694.41;4994358;28;20181;-76
2022/12/09 00:07:03;;;;;;;35.47;18.90;;;;;;;6.47;97.22;94703.84;5006143;28;20683;-76
2022/12/09 00:09:29;;;;;;;29.52;17.10;;;;;;;6.22;96.83;94687.78;5000704;28;20415;-76
2022/12/09 00:11:54;;;;;;;27.37;15.67;;;;;;;6.22;97.27;94698.22;5012504;28;20972;-76
2022/12/09 00:14:20;;;;;;;29.60;16.77;;;;;;;6.15;97.73;94679.84;4984940;28;20411;-75
2022/12/09 00:16:45;;;;;;;29.43;16.10;;;;;;;6.32;97.31;94715.19;5005802;28;20264;-76
2022/12/09 00:19:10;;;;;;;36.33;16.63;;;;;;;6.36;97.02;94710.41;5012178;28;20172;-75
2022/12/09 00:21:36;;;;;;;32.07;15.37;;;;;;;6.31;97.30;94708.34;4995033;28;20180;-75
2022/12/09 00:24:04;;;;;;;28.03;15.60;;;;;;;6.40;96.67;94711.63;4986784;28;20189;-76
2022/12/09 00:26:30;;;;;;;30.10;15.50;;;;;;;6.45;96.78;94709.28;4991798;28;20209;-76
2022/12/09 00:28:56;;;;;;;29.27;14.77;;;;;;;6.56;96.61;94716.59;5008323;28;20180;-76
2022/12/09 00:31:24;;;;;;;27.47;14.17;;;;;;;6.49;96.47;94691.41;4994162;28;20189;-76
2022/12/09 00:33:51;;;;;;;23.67;13.40;;;;;;;6.63;96.89;94706.19;4992613;28;20185;-76
2022/12/09 00:36:19;;;;;;;29.67;14.27;;;;;;;6.62;97.13;94708.00;4992985;28;20185;-76
2022/12/09 00:38:45;;;;;;;28.30;13.50;;;;;;;6.56;97.54;94690.47;4992313;28;20234;-76
2022/12/09 00:41:11;;;;;;;25.53;14.20;;;;;;;6.71;97.06;94721.75;5001132;28;20188;-76
2022/12/09 00:43:37;;;;;;;28.47;14.40;;;;;;;6.71;97.16;94714.69;4992497;28;20192;-76
2022/12/09 00:46:03;;;;;;;32.70;15.03;;;;;;;6.58;96.95;94693.66;4998121;28;20265;-76
2022/12/09 00:48:29;;;;;;;33.83;14.43;;;;;;;6.71;96.65;94713.91;5001011;28;20192;-75
2022/12/09 00:50:55;;;;;;;25.87;14.93;;;;;;;6.77;97.07;94708.69;4991959;28;20248;-75
2022/12/09 00:53:21;;;;;;;33.53;15.10;;;;;;;6.77;96.30;94716.56;4992156;28;20189;-75
2022/12/09 00:55:46;;;;;;;48.73;25.53;;;;;;;6.64;96.25;94710.44;5006790;28;20909;-75
2022/12/09 00:58:12;;;;;;;44.47;23.20;;;;;;;6.28;97.23;94690.44;5010674;28;20450;-76
2022/12/09 01:00:39;;;;;;;33.83;19.10;;;;;;;6.39;97.92;94710.84;5011285;28;20224;-76
2022/12/09 01:03:04;;;;;;;28.73;15.67;;;;;;;6.45;98.05;94698.81;5011862;28;20188;-76
2022/12/09 01:05:30;;;;;;;37.87;21.60;;;;;;;6.49;97.94;94696.63;4994921;28;20807;-76
2022/12/09 01:07:55;;;;;;;33.47;17.93;;;;;;;6.44;98.03;94708.47;5000616;28;20564;-76
2022/12/09 01:10:20;;;;;;;30.10;15.67;;;;;;;6.44;97.96;94682.31;5011482;28;20192;-75
2022/12/09 01:12:46;;;;;;;28.53;15.17;;;;;;;6.52;98.03;94675.31;5006876;28;20184;-75
2022/12/09 01:15:12;;;;;;;34.38;19.00;;;;;;;6.56;97.20;94694.88;4990149;28;20459;-75
2022/12/09 01:17:38;;;;;;;36.07;20.47;;;;;;;6.36;97.40;94669.38;4990344;28;20436;-75
2022/12/09 01:20:07;;;;;;;40.43;17.37;;;;;;;6.29;97.25;94652.84;5002525;28;20678;-75
2022/12/09 01:22:32;;;;;;;31.83;17.13;;;;;;;6.59;96.60;94697.09;4997581;28;20188;-75
2022/12/09 01:24:58;;;;;;;32.33;15.93;;;;;;;6.64;96.59;94698.16;4990316;28;20184;-76
2022/12/09 01:27:23;;;;;;;31.43;15.97;;;;;;;6.68;96.20;94698.56;4991578;28;20628;-76
2022/12/09 01:29:49;;;;;;;29.17;15.47;;;;;;;6.71;95.90;94712.09;4991878;28;20180;-75
2022/12/09 01:32:14;;;;;;;34.33;18.77;;;;;;;6.64;95.91;94718.28;4990964;28;20443;-75
2022/12/09 01:34:39;;;;;;;51.20;24.07;;;;;;;6.27;96.35;94675.75;4990791;28;20416;-75
2022/12/09 01:37:05;;;;;;;37.47;19.77;;;;;;;6.48;96.64;94692.41;4994744;28;20204;-76
2022/12/09 01:39:30;;;;;;;37.80;20.43;;;;;;;6.52;96.69;94704.09;5010802;28;20202;-75
2022/12/09 01:41:56;;;;;;;37.83;18.83;;;;;;;6.55;96.91;94703.72;5010914;28;20238;-76
2022/12/09 01:44:24;;;;;;;40.23;19.97;;;;;;;6.60;96.26;94696.09;5000043;28;20196;-75
2022/12/09 01:46:54;;;;;;;48.43;21.20;;;;;;;6.61;95.33;94693.31;4990298;28;20212;-75
2022/12/09 01:49:24;;;;;;;38.00;19.37;;;;;;;6.52;95.53;94691.00;4991678;28;20189;-75
2022/12/09 01:51:59;;;;;;;41.73;19.03;;;;;;;6.48;95.96;94700.25;4991554;28;20239;-76
2022/12/09 01:54:25;;;;;;;36.57;21.07;;;;;;;6.36;95.98;94687.69;5001436;28;20210;-76
2022/12/09 01:56:51;;;;;;;50.05;27.88;;;;;;;6.32;96.27;94693.47;5009608;28;20439;-76
2022/12/09 01:59:16;;;;;;;56.10;27.93;;;;;;;6.32;96.54;94693.47;5011245;28;20623;-76
2022/12/09 02:01:47;;;;;;;47.90;25.10;;;;;;;6.44;96.58;94691.97;5010777;28;20223;-76
2022/12/09 02:04:12;;;;;;;49.63;27.47;;;;;;;6.44;95.48;94694.56;5006262;28;20184;-76
2022/12/09 02:06:38;;;;;;;50.07;25.87;;;;;;;6.29;96.02;94688.63;5006935;28;20254;-76
2022/12/09 02:09:04;;;;;;;50.20;26.33;;;;;;;6.30;96.11;94680.59;4995423;28;20196;-76
2022/12/09 02:11:49;;;;;;;47.25;26.55;;;;;;;6.29;96.75;94680.78;5008867;28;20505;-76
2022/12/09 02:14:47;;;;;;;55.17;24.27;;;;;;;6.35;96.48;94682.63;5002338;28;20246;-76
2022/12/09 02:17:31;;;;;;;41.80;22.33;;;;;;;6.28;96.84;94681.78;5010468;28;20189;-76
2022/12/09 02:20:11;;;;;;;47.57;23.20;;;;;;;6.31;96.83;94671.75;5010674;28;20263;-76
2022/12/09 02:22:54;;;;;;;45.83;26.17;;;;;;;6.37;96.48;94675.41;5010549;28;20271;-76
2022/12/09 02:25:33;;;;;;;50.00;23.90;;;;;;;6.35;96.14;94678.22;5010492;28;20177;-76
2022/12/09 02:28:49;;;;;;;47.90;23.53;;;;;;;6.29;96.23;94683.41;5004831;28;20712;-76
2022/12/09 02:31:56;;;;;;;58.73;32.53;;;;;;;6.33;96.64;94669.75;5006186;28;20193;-76
2022/12/09 02:34:25;;;;;;;53.87;31.43;;;;;;;6.31;96.33;94673.56;4991115;28;20543;-76
2022/12/09 02:37:07;;;;;;;48.20;26.07;;;;;;;6.21;96.41;94663.44;4989522;28;20204;-76
2022/12/09 02:39:41;;;;;;;49.07;28.73;;;;;;;6.18;96.80;94649.94;4991062;28;20204;-76
2022/12/09 02:42:11;;;;;;;48.90;28.30;;;;;;;6.39;96.48;94683.91;4999813;28;20315;-76
2022/12/09 02:44:38;;;;;;;47.50;29.17;;;;;;;6.20;96.49;94689.75;4989463;28;20439;-76
2022/12/09 02:47:07;;;;;;;45.77;25.70;;;;;;;6.25;97.21;94696.03;4993888;28;20197;-76
2022/12/09 02:49:33;;;;;;;44.50;24.07;;;;;;;6.18;97.28;94682.09;5005201;28;20185;-76
2022/12/09 02:52:01;;;;;;;46.80;23.67;;;;;;;6.18;97.16;94671.66;5008494;28;20258;-76
2022/12/09 02:54:29;;;;;;;54.77;24.97;;;;;;;6.33;97.06;94695.88;5011355;28;20184;-76
2022/12/09 02:57:05;;;;;;;48.67;24.20;;;;;;;6.38;97.62;94701.38;5014048;28;20260;-76
2022/12/09 02:59:31;;;;;;;44.53;22.70;;;;;;;6.41;97.64;94702.78;5004985;28;20183;-76
2022/12/09 03:02:13;;;;;;;45.20;25.83;;;;;;;6.38;97.27;94687.50;5012462;28;20449;-76
2022/12/09 03:04:43;;;;;;;43.33;21.83;;;;;;;6.43;97.68;94685.94;5014049;28;20306;-76
2022/12/09 03:07:38;;;;;;;46.30;22.73;;;;;;;6.55;96.97;94699.28;5005251;28;20196;-76
2022/12/09 03:10:26;;;;;;;40.23;20.23;;;;;;;6.54;96.72;94697.69;4995251;28;20201;-76
2022/12/09 03:13:03;;;;;;;40.57;19.57;;;;;;;6.57;96.55;94713.00;4994302;28;20181;-76
2022/12/09 03:15:33;;;;;;;34.97;19.87;;;;;;;6.55;96.11;94698.50;4999016;28;20238;-76
2022/12/09 03:18:02;;;;;;;36.27;18.23;;;;;;;6.53;96.33;94697.88;5002350;28;20177;-77
2022/12/09 03:20:29;;;;;;;35.60;18.60;;;;;;;6.34;96.66;94681.03;5004862;28;20183;-76
2022/12/09 03:22:59;;;;;;;31.07;16.93;;;;;;;6.57;97.11;94699.13;5010639;28;20181;-77
2022/12/09 03:25:37;;;;;;;40.70;20.67;;;;;;;6.61;96.88;94690.69;5003077;28;20185;-77
2022/12/09 03:28:18;;;;;;;47.67;23.20;;;;;;;6.60;96.06;94694.28;4994081;28;20262;-77
2022/12/09 03:30:45;;;;;;;33.83;18.50;;;;;;;6.50;96.42;94685.16;4994080;28;20185;-77
2022/12/09 03:33:13;;;;;;;35.17;18.13;;;;;;;6.48;96.97;94672.31;4994034;28;20185;-77
2022/12/09 03:35:43;;;;;;;42.87;22.17;;;;;;;6.48;97.09;94666.25;4993058;28;20525;-76
2022/12/09 03:38:13;;;;;;;54.00;23.60;;;;;;;6.15;96.60;94598.03;5006971;28;20187;-76
2022/12/09 03:40:40;;;;;;;38.93;23.17;;;;;;;6.59;96.69;94668.34;4997507;28;20185;-77
2022/12/09 03:43:12;;;;;;;45.70;22.67;;;;;;;6.48;96.34;94659.22;4993526;28;20199;-78
2022/12/09 03:45:39;;;;;;;42.83;22.20;;;;;;;6.61;96.57;94672.38;4994658;28;20243;-78
2022/12/09 03:48:04;;;;;;;40.60;22.53;;;;;;;6.64;96.54;94681.66;5000836;28;20200;-78
2022/12/09 03:50:38;;;;;;;43.35;23.33;;;;;;;6.59;96.51;94678.78;5005060;28;20429;-78
2022/12/09 03:53:11;;;;;;;50.83;28.20;;;;;;;6.51;96.26;94678.94;5012577;28;20505;-78
2022/12/09 03:55:50;;;;;;;40.73;22.70;;;;;;;6.54;97.10;94681.19;5007110;28;20515;-78
2022/12/09 03:58:16;;;;;;;46.77;23.57;;;;;;;6.57;96.61;94683.44;4994217;28;20185;-78
2022/12/09 04:00:42;;;;;;;41.97;23.07;;;;;;;6.35;96.05;94667.75;4994069;28;20291;-78
2022/12/09 04:03:08;;;;;;;43.60;22.30;;;;;;;6.45;96.01;94690.97;5009531;28;20176;-78
2022/12/09 04:05:33;;;;;;;41.97;22.95;;;;;;;6.34;96.54;94687.06;4994833;28;20800;-78
2022/12/09 04:07:59;;;;;;;44.37;22.83;;;;;;;6.32;97.17;94686.44;4994345;28;20193;-78
2022/12/09 04:10:24;;;;;;;39.43;20.33;;;;;;;6.18;97.67;94670.84;5002987;28;20185;-78
2022/12/09 04:12:50;;;;;;;45.38;25.17;;;;;;;6.31;98.03;94689.25;5009122;28;20530;-78
2022/12/09 04:15:15;;;;;;;40.50;21.00;;;;;;;6.25;97.45;94661.25;5004923;28;20184;-78
2022/12/09 04:17:41;;;;;;;40.50;20.80;;;;;;;6.41;97.28;94671.41;5002414;28;20165;-79
2022/12/09 04:20:07;;;;;;;45.33;21.10;;;;;;;6.34;97.07;94684.44;5000554;28;20196;-78
2022/12/09 04:22:32;;;;;;;49.57;24.67;;;;;;;6.41;97.63;94687.09;4973058;28;20182;-78
2022/12/09 04:24:57;;;;;;;40.03;22.80;;;;;;;6.44;97.63;94686.72;4973811;28;20229;-75
2022/12/09 04:27:23;;;;;;;42.70;24.23;;;;;;;6.47;97.47;94691.59;4991445;28;20873;-75
2022/12/09 04:29:48;;;;;;;43.00;24.10;;;;;;;6.45;97.07;94701.44;4991322;28;20436;-75
2022/12/09 04:32:14;;;;;;;41.17;21.70;;;;;;;6.35;97.74;94698.31;4991200;28;20637;-76
2022/12/09 04:34:39;;;;;;;48.00;22.87;;;;;;;6.41;97.95;94687.91;5001632;28;20184;-78
2022/12/09 04:37:04;;;;;;;47.50;20.50;;;;;;;6.51;96.91;94697.25;5000225;28;20615;-79
2022/12/09 04:39:30;;;;;;;41.97;19.17;;;;;;;6.28;97.36;94655.66;4992852;28;20877;-79
2022/12/09 04:41:55;;;;;;;50.20;20.33;;;;;;;6.46;97.26;94676.09;4998189;28;20181;-79
2022/12/09 04:44:21;;;;;;;42.90;20.50;;;;;;;6.38;96.80;94656.94;4992838;28;20205;-78
2022/12/09 04:46:46;;;;;;;42.73;20.00;;;;;;;6.62;96.87;94684.47;4998786;28;20205;-78
2022/12/09 04:49:12;;;;;;;41.20;19.37;;;;;;;6.57;96.61;94672.97;4988009;28;20197;-76
2022/12/09 04:51:37;;;;;;;41.30;20.00;;;;;;;6.49;96.23;94679.13;4992685;28;20181;-76
2022/12/09 04:54:03;;;;;;;42.57;20.53;;;;;;;6.56;95.91;94698.31;5002428;28;20242;-76
2022/12/09 04:56:28;;;;;;;40.38;22.70;;;;;;;6.19;96.24;94678.50;5000319;28;20419;-76
2022/12/09 04:58:54;;;;;;;42.37;20.93;;;;;;;6.33;96.64;94703.72;4997967;28;20564;-76
2022/12/09 05:01:21;;;;;;;41.17;19.87;;;;;;;6.33;97.37;94700.31;5010964;28;20226;-76
2022/12/09 05:03:51;;;;;;;46.63;22.47;;;;;;;6.26;97.57;94700.25;4992343;28;20189;-77
2022/12/09 05:06:18;;;;;;;43.50;21.83;;;;;;;6.28;97.82;94687.81;4992614;28;20259;-76
2022/12/09 05:08:44;;;;;;;44.90;23.45;;;;;;;6.27;97.92;94706.28;4990927;28;20856;-76
2022/12/09 05:11:10;;;;;;;44.35;25.90;;;;;;;5.62;98.12;94619.25;4991001;28;20907;-76
2022/12/09 05:13:35;;;;;;;47.60;24.63;;;;;;;6.20;98.64;94702.81;5003035;28;20184;-76
2022/12/09 05:16:03;;;;;;;46.93;26.83;;;;;;;6.17;99.03;94698.78;5009893;28;20410;-75
2022/12/09 05:18:28;;;;;;;42.80;23.17;;;;;;;6.26;98.95;94689.81;5004825;28;20424;-77
2022/12/09 05:20:54;;;;;;;44.30;23.27;;;;;;;6.15;98.50;94666.78;5001007;28;20192;-77
2022/12/09 05:23:21;;;;;;;59.38;33.28;;;;;;;6.26;98.37;94670.69;4989455;28;20420;-78
2022/12/09 05:25:46;;;;;;;51.17;28.43;;;;;;;6.43;97.78;94691.16;4998291;28;20288;-75
2022/12/09 05:28:12;;;;;;;59.17;29.70;;;;;;;6.46;97.16;94689.97;4991632;28;20324;-75
2022/12/09 05:30:37;;;;;;;59.33;32.30;;;;;;;6.41;96.82;94687.09;4989978;28;20507;-75
2022/12/09 05:33:03;;;;;;;57.60;29.43;;;;;;;6.44;97.59;94692.78;5003345;28;20182;-76
2022/12/09 05:35:28;;;;;;;57.77;29.37;;;;;;;6.50;97.06;94696.44;5011250;28;20180;-76
2022/12/09 05:37:54;;;;;;;54.93;30.70;;;;;;;6.56;96.73;94710.56;5011109;28;20184;-75
2022/12/09 05:40:20;;;;;;;65.73;27.60;;;;;;;6.41;96.41;94692.34;5001577;28;20185;-76
2022/12/09 05:42:45;;;;;;;56.00;28.20;;;;;;;6.49;96.65;94715.72;5010317;28;20195;-76
2022/12/09 05:45:10;;;;;;;59.60;30.80;;;;;;;6.51;96.78;94718.16;5010226;28;20222;-76
2022/12/09 05:47:36;;;;;;;58.50;28.67;;;;;;;6.53;96.67;94716.97;5009963;28;20840;-75
2022/12/09 05:50:03;;;;;;;68.67;33.43;;;;;;;6.39;96.51;94699.56;5008765;28;20319;-76
2022/12/09 05:52:28;;;;;;;69.83;34.23;;;;;;;6.48;96.83;94703.69;5009981;28;20263;-76
2022/12/09 05:54:54;;;;;;;69.23;34.30;;;;;;;6.54;96.93;94717.78;5010967;28;20774;-76
2022/12/09 05:57:19;;;;;;;75.60;36.57;;;;;;;6.39;96.95;94692.53;5002123;28;20180;-76
2022/12/09 05:59:45;;;;;;;77.50;38.27;;;;;;;6.58;97.14;94716.41;5007885;28;20199;-76
2022/12/09 06:02:10;;;;;;;67.37;36.00;;;;;;;6.60;96.99;94691.69;4990072;28;20335;-76
2022/12/09 06:04:35;;;;;;;71.30;37.57;;;;;;;6.66;96.41;94705.81;4997466;28;20263;-76
2022/12/09 06:07:01;;;;;;;114.20;56.80;;;;;;;6.49;96.90;94718.34;5009976;28;20442;-75
2022/12/09 06:09:26;;;;;;;79.73;40.10;;;;;;;6.47;97.46;94709.09;5002176;28;20278;-76
2022/12/09 06:11:52;;;;;;;75.53;40.23;;;;;;;6.43;97.60;94701.63;5011018;28;20184;-76
2022/12/09 06:14:17;;;;;;;84.23;47.23;;;;;;;6.47;98.23;94699.44;5009274;28;20418;-75
2022/12/09 06:16:42;;;;;;;92.30;48.43;;;;;;;6.54;97.90;94712.56;5009051;28;20418;-76
2022/12/09 06:19:11;;;;;;;85.03;44.57;;;;;;;6.52;98.03;94712.75;5009453;28;20775;-75
2022/12/09 06:21:39;;;;;;;105.00;54.10;;;;;;;6.46;97.51;94704.84;5010861;28;20187;-76
2022/12/09 06:24:05;;;;;;;118.90;59.90;;;;;;;6.74;97.42;94726.59;5002016;28;20185;-76
2022/12/09 06:26:30;;;;;;;154.20;84.77;;;;;;;6.65;96.93;94717.28;5004702;28;20548;-76
2022/12/09 06:28:57;;;;;;;183.82;104.82;;;;;;;6.32;97.40;94693.47;4993811;28;20431;-75
2022/12/09 06:31:22;;;;;;;168.57;93.33;;;;;;;6.57;97.59;94710.38;4994763;28;20181;-75
2022/12/09 06:33:48;;;;;;;168.63;86.50;;;;;;;6.59;97.67;94726.66;4994512;28;20192;-75
2022/12/09 06:36:14;;;;;;;145.23;78.32;;;;;;;6.48;98.02;94715.94;4991734;28;20507;-75
2022/12/09 06:38:39;;;;;;;141.30;74.17;;;;;;;6.72;98.21;94733.81;4994656;28;20235;-76
2022/12/09 06:41:10;;;;;;;118.37;59.60;;;;;;;6.87;97.50;94742.38;4994526;28;20564;-75
2022/12/09 06:43:36;;;;;;;83.20;43.07;;;;;;;6.98;97.27;94748.91;4994421;28;20583;-76
2022/12/09 06:46:01;;;;;;;52.70;28.43;;;;;;;7.06;97.17;94740.91;5004706;28;20667;-75
2022/12/09 06:48:27;;;;;;;38.93;22.30;;;;;;;7.17;96.31;94751.66;5013804;28;20275;-75
2022/12/09 06:50:52;;;;;;;40.00;23.63;;;;;;;7.26;96.27;94751.50;5013892;28;20568;-75
2022/12/09 06:53:19;;;;;;;41.70;19.83;;;;;;;7.29;95.29;94769.41;5013947;28;20264;-75
2022/12/09 06:55:44;;;;;;;41.97;20.17;;;;;;;7.06;95.75;94748.75;5013688;28;20188;-75
2022/12/09 06:58:10;;;;;;;35.60;19.40;;;;;;;7.07;95.82;94751.19;5009662;28;20177;-75
2022/12/09 07:00:38;;;;;;;35.73;18.73;;;;;;;7.04;96.42;94753.34;4994186;28;20240;-75
2022/12/09 07:03:04;;;;;;;40.87;22.27;;;;;;;7.03;96.31;94749.94;4993923;28;20268;-75
2022/12/09 07:05:31;;;;;;;38.23;20.13;;;;;;;7.05;96.39;94742.72;4994102;28;20635;-75
2022/12/09 07:07:57;;;;;;;44.53;23.37;;;;;;;7.17;96.80;94749.03;4993709;28;20201;-74
2022/12/09 07:10:22;;;;;;;48.97;24.10;;;;;;;7.14;96.53;94732.91;4994037;28;20577;-75
2022/12/09 07:12:47;;;;;;;40.13;22.70;;;;;;;7.25;95.85;94755.91;4994096;28;20215;-75
2022/12/09 07:15:13;;;;;;;47.47;26.13;;;;;;;7.18;96.33;94763.72;4990250;28;20576;-75
2022/12/09 07:17:38;;;;;;;50.20;25.87;;;;;;;7.26;96.29;94746.25;4986286;28;20718;-75
2022/12/09 07:20:05;;;;;;;52.87;27.23;;;;;;;7.31;96.77;94746.47;4992738;28;20662;-75
2022/12/09 07:22:32;;;;;;;56.33;29.00;;;;;;;7.31;96.57;94751.72;4992332;28;20246;-75
2022/12/09 07:24:58;;;;;;;48.97;26.93;;;;;;;7.38;96.95;94736.84;4991834;28;20263;-75
2022/12/09 07:27:23;;;;;;;67.87;35.77;;;;;;;7.49;96.45;94754.63;4993577;28;20279;-75
2022/12/09 07:29:48;;;;;;;60.17;34.00;;;;;;;7.45;96.29;94728.00;4993408;28;20184;-75
2022/12/09 07:32:14;;;;;;;66.77;32.00;;;;;;;7.64;96.00;94749.25;4993267;28;20184;-75
2022/12/09 07:34:39;;;;;;;62.97;35.80;;;;;;;7.62;95.74;94741.59;4989933;28;20180;-75
2022/12/09 07:37:05;;;;;;;64.37;35.00;;;;;;;7.66;95.93;94737.59;4993026;28;20166;-75
2022/12/09 07:39:30;;;;;;;71.07;40.17;;;;;;;7.68;95.51;94750.50;4993115;28;20652;-74
2022/12/09 07:41:56;;;;;;;64.10;40.23;;;;;;;7.88;95.71;94762.66;4993006;28;20266;-74
2022/12/09 07:44:24;;;;;;;76.90;43.63;;;;;;;7.96;95.71;94752.00;4993056;28;20534;-75
2022/12/09 07:46:49;;;;;;;77.53;45.77;;;;;;;8.06;95.30;94759.47;5007390;28;20628;-74
2022/12/09 07:49:15;;;;;;;84.90;51.17;;;;;;;8.09;95.17;94740.75;5013057;28;20208;-74
2022/12/09 07:51:42;;;;;;;84.37;48.93;;;;;;;8.16;95.34;94751.25;5011559;28;20648;-73
2022/12/09 07:54:12;;;;;;;100.63;57.77;;;;;;;8.18;95.56;94738.75;4999804;28;20187;-73
2022/12/09 07:56:38;;;;;;;108.77;62.63;;;;;;;8.21;95.29;94730.50;4993084;28;20184;-74
2022/12/09 07:59:06;;;;;;;103.60;60.53;;;;;;;8.28;94.96;94744.41;4993148;28;20181;-75
2022/12/09 08:01:31;;;;;;;102.73;61.37;;;;;;;8.38;94.98;94739.63;4991998;28;20267;-75
2022/12/09 08:03:57;;;;;;;110.07;61.57;;;;;;;8.40;94.56;94748.09;5010443;28;20184;-75
2022/12/09 08:06:25;;;;;;;106.53;65.13;;;;;;;8.35;94.24;94745.25;4987673;28;20566;-74
2022/12/09 08:08:50;;;;;;;112.00;61.03;;;;;;;8.45;94.14;94750.94;4991983;28;20209;-74
2022/12/09 08:11:20;;;;;;;119.77;65.53;;;;;;;8.54;94.20;94743.69;4998523;28;20215;-74
2022/12/09 08:13:46;;;;;;;118.17;65.67;;;;;;;8.63;94.31;94747.72;5006482;28;20571;-74
2022/12/09 08:16:13;;;;;;;129.43;67.47;;;;;;;8.71;94.07;94758.00;5004767;28;20191;-74
2022/12/09 08:18:40;;;;;;;133.43;69.87;;;;;;;8.68;94.37;94759.22;4996152;28;20215;-74
2022/12/09 08:21:10;;;;;;;106.17;63.30;;;;;;;8.78;94.38;94755.38;5011114;28;20181;-75
2022/12/09 08:23:36;;;;;;;112.10;60.00;;;;;;;8.90;93.87;94764.28;4998160;28;20165;-74
2022/12/09 08:26:03;;;;;;;129.43;67.37;;;;;;;9.02;94.36;94767.88;4994003;28;20177;-74
2022/12/09 08:28:29;;;;;;;125.50;64.33;;;;;;;8.92;94.32;94749.09;4987794;28;20181;-75
2022/12/09 08:30:54;;;;;;;105.30;57.93;;;;;;;9.01;94.15;94740.81;4987416;28;20178;-75
2022/12/09 08:33:19;;;;;;;99.07;53.20;;;;;;;9.30;94.17;94754.53;4992006;28;20198;-74
2022/12/09 08:35:45;;;;;;;98.37;52.03;;;;;;;9.54;92.66;94755.69;4989572;28;20261;-75
2022/12/09 08:38:10;;;;;;;89.93;50.57;;;;;;;9.74;91.92;94769.56;4993153;28;20165;-74
2022/12/09 08:40:36;;;;;;;83.07;46.43;;;;;;;9.91;91.39;94764.66;5006510;28;20605;-75
2022/12/09 08:43:07;;;;;;;87.17;46.67;;;;;;;9.97;91.19;94746.22;4990011;28;20177;-75
2022/12/09 08:45:37;;;;;;;71.83;37.47;;;;;;;10.16;89.21;94755.84;4987918;28;20181;-75
2022/12/09 08:48:03;;;;;;;58.47;31.13;;;;;;;10.18;88.53;94730.16;5009523;28;20207;-75
2022/12/09 08:50:29;;;;;;;50.27;26.43;;;;;;;10.24;86.95;94725.88;5004961;28;20530;-75
2022/12/09 08:52:55;;;;;;;43.37;22.67;;;;;;;10.39;86.37;94736.09;5006898;28;20620;-76
2022/12/09 08:55:20;;;;;;;45.40;23.30;;;;;;;10.50;86.61;94730.16;5012133;28;20176;-76
2022/12/09 08:57:46;;;;;;;37.77;22.60;;;;;;;10.79;87.12;94721.66;5011996;28;20184;-75
2022/12/09 09:00:11;;;;;;;34.37;19.40;;;;;;;11.12;87.17;94713.44;4996714;28;20216;-75
2022/12/09 09:02:37;;;;;;;42.20;18.80;;;;;;;11.35;83.84;94718.88;4991875;28;20690;-75
2022/12/09 09:05:02;;;;;;;40.60;20.37;;;;;;;11.47;82.40;94711.06;4989059;28;20227;-76
2022/12/09 09:07:29;;;;;;;50.17;21.17;;;;;;;11.60;81.90;94691.63;4995390;28;20203;-76
2022/12/09 09:09:55;;;;;;;40.93;19.77;;;;;;;12.01;82.12;94697.06;4990667;28;20180;-76
2022/12/09 09:12:20;;;;;;;35.27;20.87;;;;;;;12.10;80.51;94689.63;4991696;28;20169;-75
2022/12/09 09:14:46;;;;;;;40.10;19.80;;;;;;;12.36;80.12;94699.00;4991842;28;20657;-75
2022/12/09 09:17:11;;;;;;;43.80;23.63;;;;;;;12.57;79.92;94689.75;4991666;28;20188;-75
2022/12/09 09:19:37;;;;;;;42.80;24.93;;;;;;;12.66;78.86;94701.59;4991692;28;20268;-76
2022/12/09 09:22:02;;;;;;;46.83;25.27;;;;;;;12.76;78.51;94700.00;4984869;28;20211;-74
2022/12/09 09:24:27;;;;;;;48.40;24.10;;;;;;;12.81;78.47;94686.09;4992071;28;20169;-76
2022/12/09 09:26:53;;;;;;;43.80;21.77;;;;;;;12.88;78.34;94683.38;5011082;28;20246;-77
2022/12/09 09:29:20;;;;;;;39.50;19.13;;;;;;;12.92;76.67;94679.22;5011656;28;20552;-77
2022/12/09 09:31:47;;;;;;;43.37;21.20;;;;;;;12.90;76.34;94673.34;5011603;28;20270;-77
2022/12/09 09:34:15;;;;;;;33.13;19.27;;;;;;;13.03;76.21;94666.03;5011351;28;20401;-78
2022/12/09 09:36:41;;;;;;;47.33;19.53;;;;;;;13.11;75.12;94660.38;5002825;28;20181;-77
2022/12/09 09:39:07;;;;;;;42.87;20.33;;;;;;;13.14;74.34;94665.25;4997465;28;20203;-73
2022/12/09 09:41:55;;;;;;;32.73;17.33;;;;;;;13.29;75.16;94645.47;4998438;28;20289;-73
2022/12/09 09:44:42;;;;;;;31.33;15.43;;;;;;;13.29;73.47;94645.47;4996604;28;20224;-77
2022/12/09 09:47:31;;;;;;;36.27;15.13;;;;;;;13.17;74.95;94653.38;4991249;28;20196;-76
2022/12/09 09:50:04;;;;;;;35.97;15.43;;;;;;;13.47;73.79;94651.41;4991455;28;20255;-77
2022/12/09 09:52:30;;;;;;;32.33;13.63;;;;;;;13.69;73.00;94646.28;4991240;28;20181;-76
2022/12/09 09:54:56;;;;;;;38.13;12.83;;;;;;;13.84;72.12;94651.84;4986654;28;20242;-77
2022/12/09 09:57:29;;;;;;;39.20;15.53;;;;;;;14.06;72.54;94646.72;4989713;28;20596;-76
2022/12/09 10:00:06;;;;;;;33.13;13.97;;;;;;;14.00;69.57;94626.50;4993761;28;20219;-75
2022/12/09 10:02:56;;;;;;;40.73;14.47;;;;;;;14.07;69.71;94621.84;4987553;28;20177;-76
2022/12/09 10:05:30;;;;;;;35.17;14.13;;;;;;;13.85;69.87;94587.31;5009220;28;20222;-76
2022/12/09 10:08:25;;;;;;;33.20;13.00;;;;;;;13.83;69.92;94615.06;5007683;28;20675;-76
2022/12/09 10:11:18;;;;;;;39.63;14.43;;;;;;;13.53;70.40;94600.22;4994920;28;20185;-76
2022/12/09 10:14:00;;;;;;;34.43;13.40;;;;;;;13.30;71.03;94596.84;4999164;28;20618;-76
2022/12/09 10:16:43;;;;;;;41.87;14.13;;;;;;;13.00;71.99;94576.63;4995642;28;20243;-77
2022/12/09 10:19:28;;;;;;;27.90;14.33;;;;;;;12.77;72.60;94579.31;4997242;28;20230;-77
2022/12/09 10:21:54;;;;;;;35.10;13.73;;;;;;;12.62;73.48;94585.06;5005209;28;20230;-76
2022/12/09 10:24:32;;;;;;;36.87;14.53;;;;;;;12.50;74.41;94580.81;5005509;28;20177;-76
2022/12/09 10:27:17;;;;;;;29.73;12.47;;;;;;;12.32;74.44;94560.59;5001525;28;20258;-77
2022/12/09 10:30:02;;;;;;;31.40;12.60;;;;;;;12.23;74.48;94546.94;4997617;28;20189;-77
2022/12/09 10:32:31;;;;;;;30.50;11.70;;;;;;;12.29;74.90;94561.03;5007498;28;20252;-78
2022/12/09 10:34:57;;;;;;;37.93;13.03;;;;;;;12.31;74.85;94561.63;4997649;28;20663;-78
2022/12/09 10:37:34;;;;;;;33.30;12.80;;;;;;;12.37;75.61;94561.50;5000548;28;20170;-77
2022/12/09 10:40:06;;;;;;;28.43;11.90;;;;;;;12.40;75.61;94563.69;4997907;28;20251;-77
2022/12/09 10:45:23;;;;;;;41.43;12.77;;;;;;;12.48;75.47;94550.16;4998143;28;20256;-77
2022/12/09 10:47:51;;;;;;;36.03;14.23;;;;;;;12.57;75.52;94555.88;5003897;28;20197;-76
2022/12/09 10:50:32;;;;;;;36.57;12.30;;;;;;;12.53;75.76;94548.66;5005186;28;20632;-76
2022/12/09 10:53:06;;;;;;;46.30;12.60;;;;;;;12.54;74.62;94543.13;5007601;28;20180;-76
2022/12/09 10:55:39;;;;;;;29.97;12.63;;;;;;;12.53;75.10;94557.38;4998860;28;20180;-76
2022/12/09 10:58:19;;;;;;;36.23;11.77;;;;;;;12.48;74.77;94538.78;5001476;28;20169;-76
2022/12/09 11:01:11;;;;;;;33.93;14.10;;;;;;;12.40;75.94;94534.66;5008821;28;20220;-77
2022/12/09 11:03:45;;;;;;;29.50;11.70;;;;;;;12.52;76.42;94547.06;4988833;28;20173;-77
2022/12/09 11:06:20;;;;;;;40.70;13.33;;;;;;;12.43;75.13;94525.47;4995946;28;20181;-77
2022/12/09 11:08:58;;;;;;;35.60;12.97;;;;;;;12.58;75.83;94530.28;5009956;28;20182;-78
2022/12/09 11:11:45;;;;;;;31.27;10.73;;;;;;;12.62;75.18;94523.53;5012857;28;20248;-77
2022/12/09 11:14:24;;;;;;;28.97;10.47;;;;;;;12.53;74.29;94524.91;5012626;28;20183;-77
2022/12/09 11:16:52;;;;;;;22.93;8.97;;;;;;;12.41;75.21;94533.63;5013652;28;20184;-77
2022/12/09 11:19:28;;;;;;;26.47;9.27;;;;;;;12.39;74.46;94538.31;4995775;28;20173;-77
2022/12/09 11:22:14;;;;;;;23.03;9.10;;;;;;;12.35;74.63;94512.63;4993116;28;20216;-77
2022/12/09 11:24:39;;;;;;;22.87;9.73;;;;;;;12.27;74.94;94526.97;4993033;28;20188;-77
2022/12/09 11:27:27;;;;;;;31.43;10.30;;;;;;;12.39;74.90;94529.59;4982521;28;20198;-78
2022/12/09 11:30:16;;;;;;;40.13;12.20;;;;;;;12.43;75.76;94515.72;4990466;28;20193;-78
2022/12/09 11:33:09;;;;;;;36.07;11.40;;;;;;;12.65;74.95;94513.28;4993199;28;20662;-78
2022/12/09 11:35:42;;;;;;;38.13;11.70;;;;;;;12.74;73.23;94508.44;5003092;28;20256;-77